createdAt,value
2022-09-30T00:02:00.400Z,61.33
2022-09-30T00:04:29.878Z,62.33
2022-09-30T00:06:59.199Z,58.00
2022-09-30T00:09:28.710Z,62.33
2022-09-30T00:11:58.519Z,60.67
2022-09-30T00:14:27.926Z,61.33
2022-09-30T00:16:57.233Z,61.33
2022-09-30T00:19:27.775Z,64.00
2022-09-30T00:21:57.071Z,62.00
2022-09-30T00:24:27.250Z,60.00
2022-09-30T00:26:56.778Z,54.33
2022-09-30T00:29:26.211Z,53.25
2022-09-30T00:31:55.621Z,52.25
2022-09-30T00:34:25.553Z,48.00
2022-09-30T00:36:56.790Z,49.25
2022-09-30T00:39:28.607Z,46.00
2022-09-30T00:42:00.111Z,46.00
2022-09-30T00:44:49.248Z,45.00
2022-09-30T00:47:21.716Z,40.75
2022-09-30T00:49:52.554Z,38.00
2022-09-30T00:52:22.312Z,42.50
2022-09-30T00:54:52.607Z,41.50
2022-09-30T00:57:21.924Z,41.75
2022-09-30T00:59:53.815Z,36.00
2022-09-30T01:02:23.248Z,38.25
2022-09-30T01:04:52.791Z,38.00
2022-09-30T01:07:24.391Z,35.50
2022-09-30T01:09:54.053Z,35.00
2022-09-30T01:12:25.422Z,34.00
2022-09-30T01:14:56.690Z,34.75
2022-09-30T01:17:32.419Z,33.50
2022-09-30T01:20:14.935Z,31.00
2022-09-30T01:22:59.572Z,32.50
2022-09-30T01:25:28.898Z,33.25
2022-09-30T01:28:15.494Z,32.00
2022-09-30T01:30:56.942Z,33.00
2022-09-30T01:33:33.254Z,33.00
2022-09-30T01:36:19.940Z,32.00
2022-09-30T01:38:52.744Z,31.75
2022-09-30T01:41:24.901Z,31.25
2022-09-30T01:44:08.208Z,31.75
2022-09-30T01:46:45.689Z,30.00
2022-09-30T01:49:24.090Z,30.00
2022-09-30T01:52:13.061Z,30.25
2022-09-30T01:54:48.183Z,30.00
2022-09-30T01:57:23.148Z,30.00
2022-09-30T02:00:22.543Z,29.50
2022-09-30T02:02:51.810Z,28.25
2022-09-30T02:05:23.778Z,29.00
2022-09-30T02:08:31.497Z,27.00
2022-09-30T02:11:04.519Z,26.50
2022-09-30T02:13:53.921Z,27.00
2022-09-30T02:16:26.207Z,26.00
2022-09-30T02:19:00.112Z,25.50
2022-09-30T02:21:33.218Z,23.00
2022-09-30T02:24:07.248Z,24.50
2022-09-30T02:26:39.375Z,23.50
2022-09-30T02:29:11.610Z,23.00
2022-09-30T02:31:43.252Z,23.00
2022-09-30T02:34:31.002Z,25.00
2022-09-30T02:37:23.437Z,21.75
2022-09-30T02:40:02.914Z,22.00
2022-09-30T02:42:33.148Z,22.00
2022-09-30T02:45:05.240Z,22.00
2022-09-30T02:47:35.651Z,21.00
2022-09-30T02:50:18.649Z,21.00
2022-09-30T02:53:01.835Z,19.00
2022-09-30T02:55:34.615Z,19.00
2022-09-30T02:58:08.083Z,20.00
2022-09-30T03:00:37.811Z,19.00
2022-09-30T03:03:09.344Z,17.75
2022-09-30T03:05:39.419Z,18.50
2022-09-30T03:08:09.818Z,17.25
2022-09-30T03:10:39.901Z,18.25
2022-09-30T03:13:18.188Z,18.00
2022-09-30T03:15:54.977Z,18.75
2022-09-30T03:18:27.426Z,16.75
2022-09-30T03:20:56.658Z,17.75
2022-09-30T03:23:27.434Z,14.00
2022-09-30T03:26:07.886Z,19.00
2022-09-30T03:28:57.602Z,16.75
2022-09-30T03:31:30.469Z,16.00
2022-09-30T03:34:12.206Z,14.75
2022-09-30T03:36:45.235Z,15.50
2022-09-30T03:39:20.741Z,15.25
2022-09-30T03:41:58.128Z,13.75
2022-09-30T03:44:50.067Z,12.00
2022-09-30T03:47:21.184Z,13.00
2022-09-30T03:49:52.938Z,15.50
2022-09-30T03:52:23.374Z,16.00
2022-09-30T03:55:04.039Z,18.50
2022-09-30T03:57:33.726Z,17.75
2022-09-30T04:00:03.144Z,18.75
2022-09-30T04:02:34.780Z,18.25
2022-09-30T04:05:06.642Z,19.50
2022-09-30T04:07:36.604Z,19.75
2022-09-30T04:10:06.826Z,22.00
2022-09-30T04:12:36.141Z,22.75
2022-09-30T04:15:05.713Z,23.25
2022-09-30T04:17:35.115Z,24.25
2022-09-30T04:20:04.539Z,23.25
2022-09-30T04:22:33.812Z,23.50
2022-09-30T04:25:03.193Z,22.25
2022-09-30T04:27:32.605Z,22.00
2022-09-30T04:30:01.891Z,22.00
2022-09-30T04:32:31.760Z,23.00
2022-09-30T04:35:00.992Z,21.00
2022-09-30T04:37:30.294Z,21.00
2022-09-30T04:39:59.932Z,23.25
2022-09-30T04:42:29.226Z,23.25
2022-09-30T04:44:59.368Z,22.75
2022-09-30T04:47:28.747Z,23.00
2022-09-30T04:49:58.637Z,24.00
2022-09-30T04:52:28.105Z,23.00
2022-09-30T04:54:57.540Z,25.25
2022-09-30T04:57:27.860Z,24.75
2022-09-30T04:59:57.640Z,28.00
2022-09-30T05:02:27.046Z,28.25
2022-09-30T05:04:56.519Z,30.50
2022-09-30T05:07:26.062Z,32.25
2022-09-30T05:09:55.273Z,32.00
2022-09-30T05:12:25.951Z,34.00
2022-09-30T05:14:56.314Z,34.00
2022-09-30T05:17:26.989Z,37.75
2022-09-30T05:19:56.524Z,34.50
2022-09-30T05:22:26.564Z,39.00
2022-09-30T05:24:57.415Z,39.00
2022-09-30T05:27:26.803Z,38.25
2022-09-30T05:29:56.249Z,37.75
2022-09-30T05:32:26.721Z,39.25
2022-09-30T05:34:57.856Z,40.50
2022-09-30T05:37:27.841Z,40.00
2022-09-30T05:39:57.408Z,44.75
2022-09-30T05:42:26.764Z,40.25
2022-09-30T05:44:56.101Z,44.25
2022-09-30T05:47:25.962Z,44.75
2022-09-30T05:49:56.320Z,44.75
2022-09-30T05:52:26.768Z,41.50
2022-09-30T05:54:57.688Z,42.75
2022-09-30T05:57:27.187Z,42.75
2022-09-30T05:59:57.808Z,42.50
2022-09-30T06:02:28.389Z,43.00
2022-09-30T06:04:57.727Z,45.50
2022-09-30T06:07:27.050Z,45.25
2022-09-30T06:09:56.375Z,46.25
2022-09-30T06:12:27.569Z,48.25
2022-09-30T06:14:57.739Z,44.25
2022-09-30T06:17:28.189Z,49.00
2022-09-30T06:19:58.069Z,48.75
2022-09-30T06:22:27.824Z,51.75
2022-09-30T06:24:57.466Z,49.25
2022-09-30T06:27:26.974Z,50.50
2022-09-30T06:29:56.243Z,52.25
2022-09-30T06:32:27.321Z,49.50
2022-09-30T06:35:00.535Z,48.50
2022-09-30T06:37:30.394Z,47.00
2022-09-30T06:40:00.059Z,49.25
2022-09-30T06:42:29.486Z,51.75
2022-09-30T06:44:58.771Z,50.00
2022-09-30T06:47:28.534Z,50.75
2022-09-30T06:50:00.288Z,49.25
2022-09-30T06:52:29.755Z,49.00
2022-09-30T06:54:59.246Z,49.00
2022-09-30T06:57:30.397Z,50.00
2022-09-30T07:00:00.717Z,49.00
2022-09-30T07:02:30.516Z,52.00
2022-09-30T07:05:00.775Z,50.25
2022-09-30T07:07:31.044Z,51.75
2022-09-30T07:10:00.498Z,48.75
2022-09-30T07:12:30.116Z,48.50
2022-09-30T07:15:01.559Z,50.25
2022-09-30T07:17:31.264Z,49.00
2022-09-30T07:20:00.837Z,53.50
2022-09-30T07:22:31.399Z,50.25
2022-09-30T07:25:08.339Z,51.75
2022-09-30T07:27:38.372Z,51.50
2022-09-30T07:30:11.256Z,49.00
2022-09-30T07:32:44.573Z,46.75
2022-09-30T07:35:14.043Z,47.50
2022-09-30T07:37:44.156Z,41.75
2022-09-30T07:40:13.614Z,41.75
2022-09-30T07:42:47.130Z,43.75
2022-09-30T07:45:20.582Z,42.75
2022-09-30T07:47:53.671Z,43.00
2022-09-30T07:50:23.756Z,42.25
2022-09-30T07:52:55.213Z,42.25
2022-09-30T07:55:25.144Z,41.75
2022-09-30T07:57:54.500Z,38.75
2022-09-30T08:00:41.701Z,42.00
2022-09-30T08:03:12.732Z,39.50
2022-09-30T08:05:43.320Z,37.25
2022-09-30T08:08:16.791Z,38.50
2022-09-30T08:10:46.338Z,37.50
2022-09-30T08:13:16.014Z,36.00
2022-09-30T08:15:45.463Z,34.75
2022-09-30T08:18:14.802Z,38.00
2022-09-30T08:20:44.086Z,38.00
2022-09-30T08:23:13.473Z,36.00
2022-09-30T08:25:42.797Z,34.50
2022-09-30T08:28:12.337Z,37.00
2022-09-30T08:30:41.908Z,34.00
2022-09-30T08:33:12.246Z,34.00
2022-09-30T08:35:42.063Z,35.50
2022-09-30T08:38:11.851Z,34.00
2022-09-30T08:40:50.836Z,34.50
2022-09-30T08:43:29.301Z,35.00
2022-09-30T08:45:59.826Z,35.50
2022-09-30T08:48:40.932Z,33.50
2022-09-30T08:51:30.995Z,35.50
2022-09-30T08:54:03.868Z,32.50
2022-09-30T08:56:34.669Z,33.00
2022-09-30T08:59:30.951Z,32.25
2022-09-30T09:02:04.335Z,33.00
2022-09-30T09:04:34.258Z,32.00
2022-09-30T09:07:10.311Z,34.00
2022-09-30T09:10:05.315Z,33.25
2022-09-30T09:12:45.115Z,32.00
2022-09-30T09:15:17.373Z,31.25
2022-09-30T09:18:10.826Z,32.25
2022-09-30T09:20:49.345Z,31.75
2022-09-30T09:23:19.389Z,32.50
2022-09-30T09:25:54.122Z,33.00
2022-09-30T09:28:36.824Z,31.50
2022-09-30T09:31:06.530Z,30.75
2022-09-30T09:33:43.938Z,31.25
2022-09-30T09:36:19.627Z,31.25
2022-09-30T09:38:59.335Z,31.00
2022-09-30T09:41:46.680Z,31.25
2022-09-30T09:44:24.370Z,30.00
2022-09-30T09:47:06.421Z,30.25
2022-09-30T09:49:36.725Z,32.50
2022-09-30T09:52:15.175Z,31.25
2022-09-30T09:54:49.020Z,31.00
2022-09-30T09:57:20.161Z,30.25
2022-09-30T10:00:23.054Z,31.00
2022-09-30T10:03:20.429Z,31.00
2022-09-30T10:06:02.899Z,32.00
2022-09-30T10:08:34.427Z,32.00
2022-09-30T10:11:05.464Z,31.00
2022-09-30T10:13:46.748Z,32.00
2022-09-30T10:16:25.498Z,34.00
2022-09-30T10:18:55.793Z,34.25
2022-09-30T10:21:27.379Z,35.75
2022-09-30T10:23:59.088Z,38.75
2022-09-30T10:26:29.578Z,45.00
2022-09-30T10:29:03.051Z,38.25
2022-09-30T10:31:39.707Z,41.75
2022-09-30T10:34:27.255Z,43.75
2022-09-30T10:36:57.950Z,44.50
2022-09-30T10:39:29.248Z,48.50
2022-09-30T10:42:04.767Z,47.75
2022-09-30T10:44:38.946Z,50.25
2022-09-30T10:47:08.638Z,51.00
2022-09-30T10:49:42.571Z,47.50
2022-09-30T10:52:22.014Z,46.75
2022-09-30T10:54:56.181Z,47.75
2022-09-30T10:57:34.299Z,45.75
2022-09-30T11:00:09.891Z,45.75
2022-09-30T11:02:39.264Z,46.50
2022-09-30T11:05:08.602Z,44.25
2022-09-30T11:07:44.012Z,45.50
2022-09-30T11:10:31.926Z,42.00
2022-09-30T11:13:19.525Z,43.50
2022-09-30T11:16:06.940Z,44.25
2022-09-30T11:18:43.567Z,47.00
2022-09-30T11:21:32.934Z,45.75
2022-09-30T11:24:03.050Z,43.00
2022-09-30T11:26:41.579Z,43.75
2022-09-30T11:29:28.619Z,40.75
2022-09-30T11:32:23.978Z,40.75
2022-09-30T11:34:56.818Z,38.75
2022-09-30T11:37:29.259Z,38.50
2022-09-30T11:40:06.477Z,37.25
2022-09-30T11:42:39.181Z,37.00
2022-09-30T11:45:13.032Z,37.50
2022-09-30T11:47:46.015Z,36.25
2022-09-30T11:50:24.989Z,38.00
2022-09-30T11:52:54.450Z,34.75
2022-09-30T11:55:29.708Z,35.25
2022-09-30T11:58:28.518Z,35.50
2022-09-30T12:01:00.837Z,36.75
2022-09-30T12:03:40.122Z,36.25
2022-09-30T12:06:21.177Z,35.50
2022-09-30T12:08:54.635Z,39.25
2022-09-30T12:11:44.103Z,34.75
2022-09-30T12:14:18.066Z,39.25
2022-09-30T12:16:49.397Z,35.50
2022-09-30T12:19:45.357Z,33.00
2022-09-30T12:22:18.422Z,33.00
2022-09-30T12:24:48.286Z,33.00
2022-09-30T12:27:20.090Z,31.00
2022-09-30T12:30:12.554Z,27.50
2022-09-30T12:32:42.771Z,27.00
2022-09-30T12:35:30.539Z,27.25
2022-09-30T12:38:00.082Z,26.25
2022-09-30T12:40:42.355Z,25.00
2022-09-30T12:43:27.169Z,24.00
2022-09-30T12:46:02.808Z,22.50
2022-09-30T12:48:41.848Z,24.50
2022-09-30T12:51:13.278Z,24.00
2022-09-30T12:53:43.150Z,23.50
2022-09-30T12:56:16.093Z,25.25
2022-09-30T12:58:56.152Z,22.00
2022-09-30T13:01:26.193Z,23.50
2022-09-30T13:04:02.806Z,23.25
2022-09-30T13:06:47.918Z,22.00
2022-09-30T13:09:31.313Z,22.00
2022-09-30T13:12:01.175Z,22.50
2022-09-30T13:14:36.285Z,24.25
2022-09-30T13:17:09.087Z,22.50
2022-09-30T13:19:41.664Z,25.25
2022-09-30T13:22:30.994Z,21.50
2022-09-30T13:25:06.270Z,22.50
2022-09-30T13:27:37.238Z,21.75
2022-09-30T13:30:18.487Z,21.00
2022-09-30T13:32:49.595Z,20.50
2022-09-30T13:35:39.969Z,21.75
2022-09-30T13:38:16.088Z,21.00
2022-09-30T13:41:06.729Z,20.25
2022-09-30T13:43:41.990Z,19.75
2022-09-30T13:46:31.138Z,21.00
2022-09-30T13:49:05.380Z,21.00
2022-09-30T13:51:36.159Z,21.50
2022-09-30T13:54:37.358Z,19.00
2022-09-30T13:57:08.368Z,19.00
2022-09-30T14:00:13.599Z,20.50
2022-09-30T14:03:05.482Z,21.00
2022-09-30T14:05:46.431Z,20.75
2022-09-30T14:08:45.604Z,20.25
2022-09-30T14:11:34.197Z,20.75
2022-09-30T14:14:19.454Z,18.75
2022-09-30T14:16:55.621Z,19.50
2022-09-30T14:19:43.867Z,19.25
2022-09-30T14:22:16.398Z,21.50
2022-09-30T14:24:46.422Z,19.75
2022-09-30T14:27:19.133Z,19.75
2022-09-30T14:29:55.575Z,18.75
2022-09-30T14:32:30.886Z,19.75
2022-09-30T14:35:07.898Z,19.00
2022-09-30T14:37:45.093Z,19.00
2022-09-30T14:40:19.433Z,18.50
2022-09-30T14:42:51.513Z,17.50
2022-09-30T14:45:28.349Z,19.50
2022-09-30T14:48:02.097Z,17.00
2022-09-30T14:50:37.429Z,19.25
2022-09-30T14:53:09.408Z,18.75
2022-09-30T14:55:39.612Z,18.75
2022-09-30T14:58:32.182Z,19.00
2022-09-30T15:01:04.196Z,17.75
2022-09-30T15:03:39.293Z,16.25
2022-09-30T15:06:19.133Z,17.75
2022-09-30T15:08:50.458Z,15.50
2022-09-30T15:11:27.450Z,19.00
2022-09-30T15:14:04.581Z,16.75
2022-09-30T15:16:36.870Z,19.00
2022-09-30T15:19:17.502Z,16.50
2022-09-30T15:21:50.079Z,18.00
2022-09-30T15:24:21.691Z,17.00
2022-09-30T15:26:55.665Z,18.00
2022-09-30T15:29:25.818Z,19.00
2022-09-30T15:32:05.022Z,17.00
2022-09-30T15:34:35.688Z,14.75
2022-09-30T15:37:10.857Z,15.25
2022-09-30T15:40:06.029Z,19.00
2022-09-30T15:42:36.824Z,16.00
2022-09-30T15:45:26.688Z,15.50
2022-09-30T15:48:16.108Z,15.25
2022-09-30T15:50:57.892Z,15.00
2022-09-30T15:53:47.456Z,15.00
2022-09-30T15:56:28.289Z,16.25
2022-09-30T15:58:59.915Z,18.00
2022-09-30T16:01:43.718Z,16.50
2022-09-30T16:04:19.902Z,17.50
2022-09-30T16:06:52.054Z,14.75
2022-09-30T16:09:25.407Z,15.00
2022-09-30T16:12:07.396Z,15.75
2022-09-30T16:14:39.138Z,15.50
2022-09-30T16:17:17.327Z,15.50
2022-09-30T16:19:59.183Z,15.00
2022-09-30T16:22:39.006Z,17.00
2022-09-30T16:25:16.148Z,17.00
2022-09-30T16:27:46.670Z,16.00
2022-09-30T16:30:20.971Z,15.75
2022-09-30T16:32:59.473Z,15.00
2022-09-30T16:35:30.655Z,16.25
2022-09-30T16:38:07.858Z,13.75
2022-09-30T16:40:39.404Z,15.75
2022-09-30T16:43:11.308Z,15.00
2022-09-30T16:45:43.048Z,15.50
2022-09-30T16:48:18.296Z,16.25
2022-09-30T16:50:52.497Z,14.50
2022-09-30T16:53:23.441Z,16.00
2022-09-30T16:55:53.559Z,13.50
2022-09-30T16:58:23.213Z,13.25
2022-09-30T17:00:52.922Z,14.50
2022-09-30T17:03:25.414Z,14.00
2022-09-30T17:05:55.796Z,13.50
2022-09-30T17:08:27.939Z,15.75
2022-09-30T17:10:59.038Z,16.25
2022-09-30T17:13:28.724Z,16.00
2022-09-30T17:15:58.531Z,15.00
2022-09-30T17:18:27.932Z,14.00
2022-09-30T17:20:58.035Z,16.50
2022-09-30T17:23:28.392Z,16.00
2022-09-30T17:25:57.896Z,17.00
2022-09-30T17:28:27.143Z,15.00
2022-09-30T17:30:56.509Z,17.00
2022-09-30T17:33:25.942Z,15.25
2022-09-30T17:36:02.400Z,15.50
2022-09-30T17:38:31.753Z,17.00
2022-09-30T17:41:20.575Z,17.25
2022-09-30T17:43:50.040Z,14.50
2022-09-30T17:46:22.387Z,14.75
2022-09-30T17:48:52.567Z,14.25
2022-09-30T17:51:21.887Z,16.25
2022-09-30T17:53:51.233Z,14.00
2022-09-30T17:56:21.942Z,13.00
2022-09-30T17:58:52.174Z,14.50
2022-09-30T18:01:22.822Z,13.75
2022-09-30T18:03:55.105Z,14.50
2022-09-30T18:06:24.541Z,15.25
2022-09-30T18:08:57.164Z,15.25
2022-09-30T18:11:27.637Z,15.00
2022-09-30T18:13:59.407Z,14.25
2022-09-30T18:16:31.730Z,14.00
2022-09-30T18:19:02.140Z,15.75
2022-09-30T18:21:32.352Z,14.00
2022-09-30T18:24:04.861Z,15.00
2022-09-30T18:26:36.026Z,15.25
2022-09-30T18:29:06.536Z,16.25
2022-09-30T18:31:38.823Z,14.50
2022-09-30T18:34:08.558Z,15.25
2022-09-30T18:36:38.331Z,14.50
2022-09-30T18:39:07.659Z,17.00
2022-09-30T18:41:40.655Z,13.50
2022-09-30T18:44:12.763Z,14.00
2022-09-30T18:46:43.564Z,13.50
2022-09-30T18:49:13.312Z,13.25
2022-09-30T18:51:43.143Z,15.00
2022-09-30T18:54:12.605Z,13.50
2022-09-30T18:56:41.981Z,12.25
2022-09-30T18:59:17.158Z,15.25
2022-09-30T19:01:49.363Z,16.00
2022-09-30T19:04:19.141Z,14.75
2022-09-30T19:06:50.162Z,13.25
2022-09-30T19:09:19.616Z,15.25
2022-09-30T19:11:50.379Z,13.25
2022-09-30T19:14:20.141Z,14.50
2022-09-30T19:16:49.655Z,14.00
2022-09-30T19:19:19.697Z,14.25
2022-09-30T19:21:50.035Z,17.00
2022-09-30T19:24:21.900Z,14.25
2022-09-30T19:26:53.528Z,14.25
2022-09-30T19:29:22.826Z,14.00
2022-09-30T19:31:52.273Z,18.25
2022-09-30T19:34:30.538Z,14.25
2022-09-30T19:37:01.682Z,13.75
2022-09-30T19:39:41.967Z,13.25
2022-09-30T19:42:15.641Z,14.25
2022-09-30T19:44:44.916Z,13.25
2022-09-30T19:47:14.167Z,13.75
2022-09-30T19:49:43.703Z,15.25
2022-09-30T19:52:20.798Z,15.25
2022-09-30T19:54:52.180Z,13.00
2022-09-30T19:57:22.010Z,14.50
2022-09-30T19:59:52.543Z,16.75
2022-09-30T20:02:22.763Z,15.25
2022-09-30T20:04:55.268Z,13.50
2022-09-30T20:07:25.706Z,14.00
2022-09-30T20:09:55.121Z,14.50
2022-09-30T20:12:25.154Z,15.50
2022-09-30T20:15:12.351Z,15.25
2022-09-30T20:17:41.806Z,13.75
2022-09-30T20:20:30.012Z,14.25
2022-09-30T20:23:02.348Z,12.00
2022-09-30T20:25:33.357Z,14.50
2022-09-30T20:28:02.998Z,14.25
2022-09-30T20:30:33.378Z,13.25
2022-09-30T20:33:03.409Z,15.50
2022-09-30T20:35:36.221Z,15.75
2022-09-30T20:38:06.024Z,15.25
2022-09-30T20:40:35.570Z,14.25
2022-09-30T20:43:05.312Z,13.25
2022-09-30T20:45:35.043Z,13.00
2022-09-30T20:48:05.174Z,14.00
2022-09-30T20:50:37.671Z,13.00
2022-09-30T20:53:09.695Z,13.50
2022-09-30T20:55:40.240Z,15.75
2022-09-30T20:58:10.397Z,15.25
2022-09-30T21:00:41.734Z,14.25
2022-09-30T21:03:13.276Z,14.25
2022-09-30T21:05:43.246Z,13.25
2022-09-30T21:08:12.770Z,14.00
2022-09-30T21:10:42.703Z,13.00
2022-09-30T21:13:12.608Z,13.75
2022-09-30T21:15:42.322Z,14.00
2022-09-30T21:18:11.726Z,12.25
2022-09-30T21:20:41.117Z,15.50
2022-09-30T21:23:10.497Z,12.50
2022-09-30T21:25:39.892Z,15.25
2022-09-30T21:28:09.128Z,14.25
2022-09-30T21:30:41.782Z,13.00
2022-09-30T21:33:11.344Z,13.50
2022-09-30T21:35:40.800Z,14.00
2022-09-30T21:38:10.298Z,12.25
2022-09-30T21:40:39.905Z,14.00
2022-09-30T21:43:09.324Z,14.75
2022-09-30T21:45:38.647Z,14.75
2022-09-30T21:48:10.130Z,13.75
2022-09-30T21:50:39.518Z,13.00
2022-09-30T21:53:08.983Z,15.00
2022-09-30T21:55:38.475Z,14.50
2022-09-30T21:58:07.733Z,13.25
2022-09-30T22:00:38.326Z,16.00
2022-09-30T22:03:07.838Z,15.00
2022-09-30T22:05:38.090Z,13.50
2022-09-30T22:08:07.645Z,14.00
2022-09-30T22:10:36.988Z,13.00
2022-09-30T22:13:06.199Z,15.25
2022-09-30T22:15:36.268Z,16.00
2022-09-30T22:18:10.407Z,15.25
2022-09-30T22:20:41.738Z,15.00
2022-09-30T22:23:11.160Z,13.75
2022-09-30T22:25:40.472Z,13.75
2022-09-30T22:28:09.806Z,13.50
2022-09-30T22:30:39.189Z,16.25
2022-09-30T22:33:26.625Z,13.75
2022-09-30T22:36:14.192Z,13.75
2022-09-30T22:38:43.491Z,14.50
2022-09-30T22:41:12.868Z,15.25
2022-09-30T22:43:42.189Z,14.00
2022-09-30T22:46:11.508Z,14.50
2022-09-30T22:48:40.854Z,15.25
2022-09-30T22:51:15.746Z,14.75
2022-09-30T22:53:44.953Z,15.75
2022-09-30T22:56:14.408Z,14.25
2022-09-30T22:58:43.707Z,14.50
2022-09-30T23:01:14.521Z,13.00
2022-09-30T23:03:44.515Z,12.25
2022-09-30T23:06:13.862Z,13.00
2022-09-30T23:08:43.172Z,14.25
2022-09-30T23:11:14.028Z,14.00
2022-09-30T23:13:43.864Z,16.00
2022-09-30T23:16:13.671Z,13.25
2022-09-30T23:18:43.143Z,15.00
2022-09-30T23:21:13.549Z,16.00
2022-09-30T23:23:43.019Z,14.00
2022-09-30T23:26:30.661Z,14.75
2022-09-30T23:29:01.186Z,13.75
2022-09-30T23:31:31.985Z,13.75
2022-09-30T23:34:03.433Z,14.00
2022-09-30T23:36:34.676Z,12.00
2022-09-30T23:39:04.548Z,12.50
2022-09-30T23:41:35.633Z,13.00
2022-09-30T23:44:05.641Z,11.00
2022-09-30T23:46:35.085Z,13.50
2022-09-30T23:49:04.453Z,13.00
2022-09-30T23:51:35.244Z,11.00
2022-09-30T23:54:06.057Z,11.00
2022-09-30T23:56:35.630Z,11.50
2022-09-30T23:59:04.983Z,11.50
